createdAt,value
2019-05-06T00:00:24.524Z,19.45
2019-05-06T00:02:54.913Z,22.60
2019-05-06T00:05:25.728Z,17.57
2019-05-06T00:07:56.373Z,20.80
2019-05-06T00:10:29.346Z,19.27
2019-05-06T00:13:00.009Z,17.05
2019-05-06T00:15:31.287Z,18.23
2019-05-06T00:18:04.240Z,17.23
2019-05-06T00:20:34.783Z,18.07
2019-05-06T00:23:14.168Z,15.90
2019-05-06T00:26:06.053Z,19.42
2019-05-06T00:28:41.546Z,15.75
2019-05-06T00:31:16.543Z,18.62
2019-05-06T00:33:46.477Z,16.35
2019-05-06T00:36:16.955Z,16.93
2019-05-06T00:38:50.389Z,19.15
2019-05-06T00:41:27.726Z,19.17
2019-05-06T00:43:59.295Z,16.30
2019-05-06T00:46:29.903Z,15.08
2019-05-06T00:49:00.405Z,15.35
2019-05-06T00:51:30.959Z,19.40
2019-05-06T00:54:06.767Z,15.93
2019-05-06T00:56:37.345Z,15.20
2019-05-06T00:59:07.780Z,13.90
2019-05-06T01:01:38.393Z,14.53
2019-05-06T01:04:08.909Z,16.10
2019-05-06T01:06:39.511Z,17.87
2019-05-06T01:09:14.613Z,16.17
2019-05-06T01:11:46.713Z,14.33
2019-05-06T01:14:25.721Z,16.87
2019-05-06T01:16:56.188Z,12.53
2019-05-06T01:19:26.622Z,28.67
2019-05-06T01:21:57.089Z,14.68
2019-05-06T01:24:27.550Z,16.82
2019-05-06T01:26:58.017Z,16.52
2019-05-06T01:29:28.545Z,14.90
2019-05-06T01:31:59.050Z,13.98
2019-05-06T01:34:29.504Z,17.15
2019-05-06T01:37:00.021Z,14.50
2019-05-06T01:39:49.426Z,12.60
2019-05-06T01:42:44.554Z,16.23
2019-05-06T01:45:14.653Z,12.05
2019-05-06T01:47:45.213Z,14.95
2019-05-06T01:50:16.010Z,14.75
2019-05-06T01:52:46.541Z,16.05
2019-05-06T01:55:17.029Z,13.88
2019-05-06T01:57:47.553Z,15.15
2019-05-06T02:00:19.725Z,15.10
2019-05-06T02:02:50.282Z,14.73
2019-05-06T02:05:20.765Z,15.80
2019-05-06T02:07:51.280Z,19.23
2019-05-06T02:10:23.713Z,13.90
2019-05-06T02:12:54.158Z,13.62
2019-05-06T02:15:24.821Z,17.23
2019-05-06T02:17:55.295Z,17.07
2019-05-06T02:20:25.763Z,16.85
2019-05-06T02:23:06.309Z,16.15
2019-05-06T02:25:44.667Z,13.10
2019-05-06T02:28:16.228Z,15.88
2019-05-06T02:30:57.870Z,18.15
2019-05-06T02:33:59.394Z,14.15
2019-05-06T02:36:50.296Z,18.27
2019-05-06T02:39:23.377Z,17.15
2019-05-06T02:41:54.823Z,15.50
2019-05-06T02:44:24.982Z,16.73
2019-05-06T02:47:03.868Z,15.20
2019-05-06T02:49:53.664Z,16.87
2019-05-06T02:52:25.186Z,19.20
2019-05-06T02:54:55.627Z,18.90
2019-05-06T02:57:26.130Z,14.00
2019-05-06T02:59:56.651Z,17.05
2019-05-06T03:02:42.007Z,16.07
2019-05-06T03:04:59.250Z,15.00
2019-05-06T03:07:32.614Z,15.72
2019-05-06T03:10:04.205Z,20.17
2019-05-06T03:12:34.081Z,14.98
2019-05-06T03:15:05.032Z,16.20
2019-05-06T03:17:35.663Z,18.00
2019-05-06T03:20:08.596Z,15.28
2019-05-06T03:22:48.182Z,15.08
2019-05-06T03:25:24.015Z,15.83
2019-05-06T03:27:53.763Z,17.60
2019-05-06T03:30:25.643Z,20.00
2019-05-06T03:33:31.369Z,17.10
2019-05-06T03:35:48.399Z,14.47
2019-05-06T03:38:03.651Z,17.98
2019-05-06T03:40:36.148Z,18.77
2019-05-06T03:43:05.033Z,19.45
2019-05-06T03:45:43.834Z,17.52
2019-05-06T03:48:18.567Z,15.35
2019-05-06T03:50:49.065Z,19.05
2019-05-06T03:53:19.838Z,15.93
2019-05-06T03:55:53.860Z,20.80
2019-05-06T03:58:26.867Z,16.52
2019-05-06T04:00:58.927Z,16.32
2019-05-06T04:03:43.894Z,17.73
2019-05-06T04:06:04.388Z,17.37
2019-05-06T04:08:35.586Z,18.10
2019-05-06T04:11:06.084Z,20.62
2019-05-06T04:13:36.649Z,17.95
2019-05-06T04:16:33.758Z,17.32
2019-05-06T04:19:18.670Z,20.08
2019-05-06T04:22:23.864Z,19.25
2019-05-06T04:25:16.161Z,17.07
2019-05-06T04:27:58.444Z,19.07
2019-05-06T04:30:28.978Z,20.90
2019-05-06T04:32:59.613Z,21.95
2019-05-06T04:35:30.263Z,22.00
2019-05-06T04:38:03.112Z,20.85
2019-05-06T04:40:33.404Z,18.85
2019-05-06T04:43:03.977Z,23.38
2019-05-06T04:45:34.473Z,20.05
2019-05-06T04:48:05.227Z,22.42
2019-05-06T04:50:35.747Z,20.12
2019-05-06T04:53:06.462Z,18.73
2019-05-06T04:55:37.373Z,17.82
2019-05-06T04:58:08.306Z,19.92
2019-05-06T05:00:39.106Z,16.37
2019-05-06T05:03:09.648Z,16.70
2019-05-06T05:05:40.186Z,14.80
2019-05-06T05:08:13.144Z,17.32
2019-05-06T05:10:58.280Z,17.65
2019-05-06T05:13:48.451Z,17.87
2019-05-06T05:16:28.468Z,17.73
2019-05-06T05:19:12.138Z,13.93
2019-05-06T05:21:42.990Z,13.85
2019-05-06T05:24:14.714Z,14.70
2019-05-06T05:26:47.151Z,16.42
2019-05-06T05:29:17.492Z,12.78
2019-05-06T05:31:48.045Z,17.07
2019-05-06T05:34:18.695Z,15.88
2019-05-06T05:36:49.188Z,16.62
2019-05-06T05:39:19.700Z,18.85
2019-05-06T05:41:52.126Z,20.00
2019-05-06T05:44:26.313Z,20.12
2019-05-06T05:46:57.323Z,18.92
2019-05-06T05:49:38.982Z,21.48
2019-05-06T05:52:09.508Z,20.97
2019-05-06T05:54:39.962Z,21.15
2019-05-06T05:57:12.932Z,20.08
2019-05-06T05:59:43.712Z,18.12
2019-05-06T06:02:14.590Z,18.90
2019-05-06T06:04:54.818Z,16.85
2019-05-06T06:07:17.758Z,16.75
2019-05-06T06:10:04.011Z,20.40
2019-05-06T06:12:34.916Z,17.32
2019-05-06T06:15:24.786Z,17.15
2019-05-06T06:18:14.370Z,15.28
2019-05-06T06:20:52.815Z,15.80
2019-05-06T06:23:32.376Z,17.92
2019-05-06T06:26:03.890Z,19.15
2019-05-06T06:28:34.642Z,18.55
2019-05-06T06:31:15.617Z,17.27
2019-05-06T06:33:46.199Z,20.48
2019-05-06T06:36:26.032Z,18.12
2019-05-06T06:39:04.973Z,16.75
2019-05-06T06:41:35.876Z,15.55
2019-05-06T06:44:10.509Z,14.93
2019-05-06T06:46:42.901Z,17.90
2019-05-06T06:49:13.455Z,14.33
2019-05-06T06:51:43.943Z,16.65
2019-05-06T06:54:14.606Z,20.02
2019-05-06T06:57:09.407Z,15.35
2019-05-06T06:59:49.272Z,16.87
2019-05-06T07:02:37.874Z,15.15
2019-05-06T07:05:27.958Z,13.88
2019-05-06T07:07:54.595Z,15.53
2019-05-06T07:10:43.481Z,10.70
2019-05-06T07:13:16.453Z,10.48
2019-05-06T07:15:47.076Z,11.12
2019-05-06T07:18:17.530Z,15.18
2019-05-06T07:21:06.410Z,12.68
2019-05-06T07:23:37.389Z,14.43
2019-05-06T07:26:09.202Z,13.15
2019-05-06T07:28:39.778Z,15.00
2019-05-06T07:31:20.860Z,11.18
2019-05-06T07:33:44.118Z,9.08
2019-05-06T07:36:15.823Z,10.68
2019-05-06T07:38:52.992Z,10.75
2019-05-06T07:41:29.705Z,10.50
2019-05-06T07:44:13.019Z,10.40
2019-05-06T07:47:05.768Z,9.45
2019-05-06T07:49:36.311Z,12.10
2019-05-06T07:52:06.840Z,7.10
2019-05-06T07:54:37.532Z,7.87
2019-05-06T07:57:08.185Z,11.18
2019-05-06T07:59:38.861Z,11.25
2019-05-06T08:02:09.353Z,10.05
2019-05-06T08:04:41.584Z,12.90
2019-05-06T08:07:12.592Z,9.05
2019-05-06T08:09:43.246Z,7.62
2019-05-06T08:12:13.866Z,7.42
2019-05-06T08:14:44.452Z,7.42
2019-05-06T08:17:26.883Z,9.05
2019-05-06T08:19:57.389Z,6.83
2019-05-06T08:22:46.291Z,6.10
2019-05-06T08:25:16.856Z,8.10
2019-05-06T08:27:49.470Z,8.05
2019-05-06T08:30:19.711Z,10.38
2019-05-06T08:32:52.730Z,9.88
2019-05-06T08:35:22.867Z,6.25
2019-05-06T08:37:54.301Z,9.38
2019-05-06T08:40:26.475Z,6.37
2019-05-06T08:42:56.556Z,10.48
2019-05-06T08:45:28.142Z,7.67
2019-05-06T08:47:58.969Z,8.35
2019-05-06T08:51:02.790Z,9.18
2019-05-06T08:53:36.923Z,7.20
2019-05-06T08:56:08.997Z,7.03
2019-05-06T08:58:47.011Z,7.72
2019-05-06T09:04:12.810Z,7.08
2019-05-06T09:06:43.186Z,8.30
2019-05-06T09:09:15.056Z,7.17
2019-05-06T09:11:45.621Z,5.67
2019-05-06T09:14:16.104Z,7.97
2019-05-06T09:16:46.641Z,7.03
2019-05-06T09:19:17.142Z,5.58
2019-05-06T09:21:47.661Z,7.72
2019-05-06T09:24:18.458Z,6.22
2019-05-06T09:27:12.276Z,5.67
2019-05-06T09:29:46.622Z,7.33
2019-05-06T09:32:23.615Z,7.67
2019-05-06T09:34:55.976Z,7.42
2019-05-06T09:37:26.427Z,6.75
2019-05-06T09:39:56.994Z,5.60
2019-05-06T09:42:27.594Z,5.80
2019-05-06T09:44:58.089Z,6.58
2019-05-06T09:47:56.375Z,6.72
2019-05-06T09:50:45.490Z,6.85
2019-05-06T09:53:17.365Z,8.53
2019-05-06T09:56:05.269Z,8.15
2019-05-06T09:58:39.045Z,7.60
2019-05-06T10:01:09.490Z,9.45
2019-05-06T10:03:42.278Z,6.47
2019-05-06T10:06:13.092Z,10.32
2019-05-06T10:08:44.061Z,6.87
2019-05-06T10:11:14.943Z,10.18
2019-05-06T10:13:45.492Z,7.72
2019-05-06T10:16:16.065Z,6.50
2019-05-06T10:18:46.633Z,3.25
2019-05-06T10:21:18.398Z,4.45
2019-05-06T10:23:48.956Z,5.33
2019-05-06T10:26:19.532Z,5.20
2019-05-06T10:29:07.814Z,6.80
2019-05-06T10:31:43.335Z,5.80
2019-05-06T10:34:14.517Z,6.20
2019-05-06T10:37:11.548Z,6.22
2019-05-06T10:39:36.450Z,5.53
2019-05-06T10:42:13.032Z,5.92
2019-05-06T10:45:05.555Z,6.00
2019-05-06T10:47:36.213Z,6.53
2019-05-06T10:50:07.032Z,5.83
2019-05-06T10:52:55.385Z,5.62
2019-05-06T10:55:25.903Z,7.33
2019-05-06T10:57:55.933Z,4.75
2019-05-06T11:00:26.469Z,4.83
2019-05-06T11:03:22.683Z,5.78
2019-05-06T11:05:53.819Z,7.05
2019-05-06T11:08:24.364Z,10.10
2019-05-06T11:10:54.812Z,5.62
2019-05-06T11:13:25.303Z,4.97
2019-05-06T11:15:55.831Z,5.62
2019-05-06T11:18:26.394Z,7.72
2019-05-06T11:20:56.927Z,5.50
2019-05-06T11:23:27.371Z,7.28
2019-05-06T11:25:57.886Z,4.55
2019-05-06T11:28:51.885Z,6.25
2019-05-06T11:31:54.293Z,4.42
2019-05-06T11:34:58.965Z,4.08
2019-05-06T11:37:50.982Z,7.03
2019-05-06T11:40:23.496Z,6.83
2019-05-06T11:42:53.838Z,4.60
2019-05-06T11:45:25.244Z,7.08
2019-05-06T11:47:56.214Z,7.17
2019-05-06T11:50:26.848Z,4.92
2019-05-06T11:52:57.878Z,6.20
2019-05-06T11:55:33.809Z,5.20
2019-05-06T11:58:02.548Z,8.63
2019-05-06T12:00:37.995Z,8.35
2019-05-06T12:03:08.809Z,7.10
2019-05-06T12:05:39.353Z,5.50
2019-05-06T12:08:13.007Z,4.37
2019-05-06T12:10:42.432Z,3.75
2019-05-06T12:13:13.050Z,5.45
2019-05-06T12:15:43.476Z,6.47
2019-05-06T12:18:13.969Z,10.30
2019-05-06T12:20:44.510Z,10.70
2019-05-06T12:23:15.692Z,6.17
2019-05-06T12:25:46.445Z,3.37
2019-05-06T12:28:17.653Z,5.65
2019-05-06T12:30:48.286Z,5.17
2019-05-06T12:33:36.991Z,4.62
2019-05-06T12:36:21.803Z,5.10
2019-05-06T12:39:14.967Z,5.53
2019-05-06T12:42:15.047Z,6.10
2019-05-06T12:44:53.502Z,7.17
2019-05-06T12:47:49.179Z,6.55
2019-05-06T12:50:19.753Z,13.03
2019-05-06T12:52:52.357Z,6.28
2019-05-06T12:55:25.225Z,8.05
2019-05-06T12:57:55.702Z,7.05
2019-05-06T13:00:27.999Z,7.35
2019-05-06T13:02:58.567Z,5.05
2019-05-06T13:05:29.057Z,7.45
2019-05-06T13:08:04.362Z,6.67
2019-05-06T13:10:33.559Z,6.10
2019-05-06T13:13:05.357Z,7.97
2019-05-06T13:15:36.008Z,4.55
2019-05-06T13:18:07.509Z,5.58
2019-05-06T13:20:38.616Z,5.37
2019-05-06T13:23:35.080Z,4.25
2019-05-06T13:26:05.029Z,6.33
2019-05-06T13:28:37.446Z,9.75
2019-05-06T13:31:17.186Z,6.67
2019-05-06T13:33:55.131Z,6.28
2019-05-06T13:36:25.895Z,5.65
2019-05-06T13:39:09.526Z,6.80
2019-05-06T13:41:28.745Z,6.53
2019-05-06T13:44:18.205Z,8.00
2019-05-06T13:46:53.706Z,5.42
2019-05-06T13:49:58.281Z,4.78
2019-05-06T13:52:35.498Z,5.75
2019-05-06T13:55:06.919Z,8.00
2019-05-06T13:57:39.283Z,9.30
2019-05-06T14:00:10.487Z,7.22
2019-05-06T14:02:55.706Z,7.15
2019-05-06T14:05:26.393Z,7.55
2019-05-06T14:07:56.934Z,5.92
2019-05-06T14:10:27.414Z,7.90
2019-05-06T14:12:57.974Z,6.60
2019-05-06T14:15:28.553Z,6.22
2019-05-06T14:17:59.281Z,4.97
2019-05-06T14:20:30.125Z,7.20
2019-05-06T14:23:02.290Z,5.10
2019-05-06T14:25:52.818Z,6.90
2019-05-06T14:28:29.136Z,6.83
2019-05-06T14:31:16.943Z,5.28
2019-05-06T14:36:16.688Z,7.30
2019-05-06T14:38:47.234Z,5.67
2019-05-06T14:41:26.815Z,6.28
2019-05-06T14:43:55.232Z,6.10
2019-05-06T14:46:27.813Z,7.00
2019-05-06T14:48:58.403Z,9.00
2019-05-06T14:51:30.276Z,6.50
2019-05-06T14:54:00.972Z,6.30
2019-05-06T14:56:43.694Z,7.85
2019-05-06T14:59:14.268Z,7.45
2019-05-06T15:01:45.954Z,6.58
2019-05-06T15:04:16.464Z,6.90
2019-05-06T15:06:47.206Z,10.08
2019-05-06T15:09:17.793Z,7.12
2019-05-06T15:11:49.262Z,6.75
2019-05-06T15:14:22.666Z,5.62
2019-05-06T15:16:53.080Z,9.28
2019-05-06T15:19:24.118Z,7.58
2019-05-06T15:21:55.210Z,7.65
2019-05-06T15:24:25.869Z,6.87
2019-05-06T15:26:56.864Z,6.83
2019-05-06T15:29:28.521Z,9.45
2019-05-06T15:32:16.056Z,6.65
2019-05-06T15:35:05.555Z,7.45
2019-05-06T15:37:47.355Z,8.60
2019-05-06T15:40:31.055Z,7.12
2019-05-06T15:42:53.188Z,6.75
2019-05-06T15:45:23.110Z,9.60
2019-05-06T15:47:54.720Z,8.23
2019-05-06T15:50:25.369Z,9.88
2019-05-06T15:52:56.368Z,6.33
2019-05-06T15:55:26.855Z,5.80
2019-05-06T15:57:57.662Z,6.37
2019-05-06T16:00:29.484Z,6.33
2019-05-06T16:03:00.316Z,10.43
2019-05-06T16:05:34.201Z,7.80
2019-05-06T16:08:03.280Z,7.47
2019-05-06T16:10:51.362Z,8.50
2019-05-06T16:13:07.238Z,6.92
2019-05-06T16:15:37.890Z,7.67
2019-05-06T16:18:08.665Z,7.47
2019-05-06T16:20:39.366Z,7.97
2019-05-06T16:23:16.102Z,9.05
2019-05-06T16:25:47.079Z,7.28
2019-05-06T16:28:17.791Z,8.80
2019-05-06T16:30:48.326Z,8.58
2019-05-06T16:33:19.241Z,8.00
2019-05-06T16:35:52.070Z,8.20
2019-05-06T16:38:23.039Z,8.45
2019-05-06T16:41:08.503Z,8.58
2019-05-06T16:43:25.774Z,9.23
2019-05-06T16:45:56.316Z,29.05
2019-05-06T16:48:26.768Z,10.80
2019-05-06T16:50:57.348Z,8.53
2019-05-06T16:53:30.181Z,8.63
2019-05-06T16:56:22.180Z,11.05
2019-05-06T16:58:55.557Z,11.78
2019-05-06T17:01:26.035Z,9.73
2019-05-06T17:04:08.161Z,9.58
2019-05-06T17:06:39.936Z,8.98
2019-05-06T17:09:20.102Z,9.20
2019-05-06T17:11:43.213Z,9.20
2019-05-06T17:14:13.740Z,8.98
2019-05-06T17:16:44.333Z,8.58
2019-05-06T17:19:14.772Z,10.90
2019-05-06T17:21:48.182Z,12.65
2019-05-06T17:24:17.464Z,10.53
2019-05-06T17:26:48.124Z,11.30
2019-05-06T17:29:42.649Z,10.78
2019-05-06T17:32:33.803Z,9.00
2019-05-06T17:35:04.673Z,13.10
2019-05-06T17:37:54.156Z,9.33
2019-05-06T17:40:24.807Z,9.00
2019-05-06T17:42:55.386Z,12.10
2019-05-06T17:45:58.448Z,11.05
2019-05-06T17:48:45.017Z,12.10
2019-05-06T17:51:29.604Z,12.10
2019-05-06T17:54:00.745Z,14.40
2019-05-06T17:56:31.372Z,9.20
2019-05-06T17:59:03.176Z,10.65
2019-05-06T18:01:42.051Z,10.00
2019-05-06T18:04:12.761Z,12.58
2019-05-06T18:06:43.449Z,12.80
2019-05-06T18:09:14.024Z,14.15
2019-05-06T18:11:57.786Z,13.32
2019-05-06T18:14:18.481Z,13.58
2019-05-06T18:16:49.084Z,11.83
2019-05-06T18:19:22.109Z,8.23
2019-05-06T18:21:52.920Z,12.05
2019-05-06T18:24:23.509Z,11.08
2019-05-06T18:26:54.633Z,11.15
2019-05-06T18:29:25.507Z,15.32
2019-05-06T18:31:56.587Z,12.73
2019-05-06T18:34:27.396Z,9.90
2019-05-06T18:36:59.167Z,12.63
2019-05-06T18:39:29.743Z,12.10
2019-05-06T18:42:14.962Z,10.58
2019-05-06T18:44:33.363Z,12.88
2019-05-06T18:47:05.227Z,11.30
2019-05-06T18:49:36.051Z,13.98
2019-05-06T18:52:06.837Z,15.10
2019-05-06T18:54:37.757Z,14.13
2019-05-06T18:57:09.790Z,14.85
2019-05-06T18:59:42.097Z,24.32
2019-05-06T19:02:13.262Z,13.53
2019-05-06T19:04:52.283Z,13.22
2019-05-06T19:07:22.896Z,13.05
2019-05-06T19:09:58.069Z,14.55
2019-05-06T19:12:34.599Z,17.07
2019-05-06T19:15:03.120Z,12.33
2019-05-06T19:17:33.583Z,13.48
2019-05-06T19:20:04.458Z,14.10
2019-05-06T19:22:35.065Z,14.73
2019-05-06T19:25:06.228Z,16.00
2019-05-06T19:27:37.017Z,13.80
2019-05-06T19:30:07.825Z,16.30
2019-05-06T19:32:39.402Z,15.95
2019-05-06T19:35:10.087Z,15.08
2019-05-06T19:37:40.692Z,13.58
2019-05-06T19:40:12.112Z,11.70
2019-05-06T19:42:49.467Z,15.48
2019-05-06T19:45:15.100Z,13.88
2019-05-06T19:47:45.873Z,19.02
2019-05-06T19:50:16.469Z,16.90
2019-05-06T19:52:47.332Z,16.93
2019-05-06T19:55:19.101Z,13.32
2019-05-06T19:57:49.651Z,15.40
2019-05-06T20:00:22.725Z,15.15
2019-05-06T20:02:53.635Z,18.37
2019-05-06T20:05:39.836Z,20.40
2019-05-06T20:08:23.679Z,16.82
2019-05-06T20:11:22.702Z,20.57
2019-05-06T20:13:53.279Z,21.45
2019-05-06T20:16:24.095Z,19.87
2019-05-06T20:18:55.158Z,18.87
2019-05-06T20:21:25.887Z,21.35
2019-05-06T20:23:56.497Z,21.45
2019-05-06T20:26:27.067Z,20.75
2019-05-06T20:28:57.845Z,21.77
2019-05-06T20:31:29.184Z,23.80
2019-05-06T20:34:01.652Z,21.42
2019-05-06T20:36:33.196Z,20.77
2019-05-06T20:39:07.338Z,23.07
2019-05-06T20:41:38.445Z,18.92
2019-05-06T20:44:09.232Z,19.05
2019-05-06T20:46:39.807Z,39.83
2019-05-06T20:49:10.582Z,21.52
2019-05-06T20:51:42.455Z,22.32
2019-05-06T20:54:13.569Z,20.27
2019-05-06T20:56:44.367Z,20.95
2019-05-06T20:59:16.212Z,16.93
2019-05-06T21:01:46.744Z,19.37
2019-05-06T21:04:17.728Z,19.92
2019-05-06T21:06:48.564Z,20.92
2019-05-06T21:09:19.321Z,17.77
2019-05-06T21:11:52.213Z,24.67
2019-05-06T21:14:22.847Z,21.02
2019-05-06T21:16:53.684Z,16.82
2019-05-06T21:19:24.509Z,17.27
2019-05-06T21:21:55.059Z,17.30
2019-05-06T21:24:25.551Z,24.27
2019-05-06T21:26:56.560Z,16.60
2019-05-06T21:29:27.456Z,17.60
2019-05-06T21:31:58.266Z,21.33
2019-05-06T21:34:32.648Z,15.05
2019-05-06T21:37:03.446Z,15.03
2019-05-06T21:39:34.051Z,17.40
2019-05-06T21:42:04.539Z,25.23
2019-05-06T21:44:35.374Z,15.58
2019-05-06T21:47:06.019Z,15.78
2019-05-06T21:49:36.593Z,12.75
2019-05-06T21:52:07.162Z,15.05
2019-05-06T21:54:37.988Z,19.37
2019-05-06T21:57:08.664Z,17.35
2019-05-06T21:59:39.123Z,15.13
2019-05-06T22:02:12.011Z,15.68
2019-05-06T22:04:43.370Z,14.05
2019-05-06T22:07:13.988Z,11.00
2019-05-06T22:09:44.612Z,14.05
2019-05-06T22:12:15.073Z,12.25
2019-05-06T22:14:45.624Z,14.63
2019-05-06T22:17:16.397Z,12.68
2019-05-06T22:19:47.556Z,16.20
2019-05-06T22:22:21.262Z,14.13
2019-05-06T22:24:57.414Z,14.07
2019-05-06T22:27:26.755Z,11.97
2019-05-06T22:29:58.113Z,11.10
2019-05-06T22:32:28.783Z,16.27
2019-05-06T22:34:59.564Z,16.80
2019-05-06T22:37:30.091Z,16.67
2019-05-06T22:40:02.234Z,17.98
2019-05-06T22:42:33.659Z,14.23
2019-05-06T22:45:04.307Z,13.95
2019-05-06T22:47:35.120Z,13.75
2019-05-06T22:50:06.117Z,12.90
2019-05-06T22:52:36.827Z,12.47
2019-05-06T22:55:08.094Z,17.73
2019-05-06T22:57:38.776Z,17.25
2019-05-06T23:00:12.219Z,14.73
2019-05-06T23:02:56.219Z,18.98
2019-05-06T23:05:26.919Z,17.50
2019-05-06T23:07:57.404Z,15.38
2019-05-06T23:10:28.027Z,15.25
2019-05-06T23:12:58.987Z,17.48
2019-05-06T23:15:29.716Z,18.85
2019-05-06T23:18:02.309Z,16.80
2019-05-06T23:20:32.729Z,18.95
2019-05-06T23:23:04.930Z,18.77
2019-05-06T23:25:35.847Z,20.88
2019-05-06T23:28:06.461Z,19.17
2019-05-06T23:30:37.112Z,18.12
2019-05-06T23:33:07.707Z,21.00
2019-05-06T23:35:39.368Z,17.98
2019-05-06T23:38:46.183Z,18.32
2019-05-06T23:41:52.912Z,17.35
2019-05-06T23:44:59.534Z,20.80
2019-05-06T23:48:06.404Z,18.40
2019-05-06T23:51:12.788Z,16.67
2019-05-06T23:54:18.919Z,20.70
2019-05-06T23:56:47.784Z,19.52
2019-05-06T23:59:19.243Z,21.35
